createdAt,value
2018-10-01T00:00:01.283Z,941.22
2018-10-01T00:01:01.187Z,941.23
2018-10-01T00:02:01.094Z,941.26
2018-10-01T00:03:00.989Z,941.23
2018-10-01T00:04:00.911Z,941.26
2018-10-01T00:05:00.793Z,941.23
2018-10-01T00:06:00.699Z,941.22
2018-10-01T00:07:00.600Z,941.25
2018-10-01T00:08:00.504Z,941.22
2018-10-01T00:09:00.420Z,941.20
2018-10-01T00:10:00.414Z,941.20
2018-10-01T00:11:00.214Z,941.21
2018-10-01T00:12:00.112Z,941.19
2018-10-01T00:13:00.021Z,941.16
2018-10-01T00:13:59.941Z,941.13
2018-10-01T00:14:59.827Z,941.15
2018-10-01T00:15:59.723Z,941.15
2018-10-01T00:16:59.632Z,941.12
2018-10-01T00:17:59.531Z,941.09
2018-10-01T00:18:59.449Z,941.09
2018-10-01T00:19:59.336Z,941.03
2018-10-01T00:20:59.240Z,941.05
2018-10-01T00:21:59.140Z,941.01
2018-10-01T00:22:59.042Z,941.01
2018-10-01T00:23:59.069Z,941.00
2018-10-01T00:24:58.850Z,940.95
2018-10-01T00:25:58.754Z,940.96
2018-10-01T00:26:58.655Z,940.94
2018-10-01T00:27:58.556Z,940.92
2018-10-01T00:28:58.491Z,940.92
2018-10-01T00:29:58.361Z,940.87
2018-10-01T00:30:58.377Z,940.90
2018-10-01T00:31:58.171Z,940.87
2018-10-01T00:32:58.071Z,940.88
2018-10-01T00:33:57.980Z,940.85
2018-10-01T00:34:57.894Z,940.84
2018-10-01T00:35:57.782Z,940.85
2018-10-01T00:36:57.683Z,940.89
2018-10-01T00:37:57.686Z,940.84
2018-10-01T00:38:57.491Z,940.86
2018-10-01T00:39:57.408Z,940.87
2018-10-01T00:40:57.291Z,940.87
2018-10-01T00:41:57.195Z,940.80
2018-10-01T00:42:57.100Z,940.74
2018-10-01T00:43:57.002Z,940.75
2018-10-01T00:44:57.027Z,940.75
2018-10-01T00:45:56.812Z,940.76
2018-10-01T00:46:56.714Z,940.73
2018-10-01T00:47:56.612Z,940.69
2018-10-01T00:48:56.518Z,940.73
2018-10-01T00:49:56.455Z,940.75
2018-10-01T00:50:56.322Z,940.73
2018-10-01T00:51:56.220Z,940.71
2018-10-01T00:52:56.125Z,940.69
2018-10-01T00:53:56.034Z,940.72
2018-10-01T00:54:55.948Z,940.72
2018-10-01T00:55:55.840Z,940.71
2018-10-01T00:56:55.737Z,940.70
2018-10-01T00:57:55.642Z,940.72
2018-10-01T00:58:55.544Z,940.71
2018-10-01T00:59:55.477Z,940.71
2018-10-01T01:00:55.347Z,940.70
2018-10-01T01:01:55.248Z,940.71
2018-10-01T01:02:55.158Z,940.71
2018-10-01T01:03:55.055Z,940.71
2018-10-01T01:04:54.973Z,940.71
2018-10-01T01:05:54.857Z,940.71
2018-10-01T01:06:54.761Z,940.75
2018-10-01T01:07:54.665Z,940.73
2018-10-01T01:08:54.569Z,940.76
2018-10-01T01:09:54.491Z,940.70
2018-10-01T01:10:54.377Z,940.70
2018-10-01T01:11:54.273Z,940.70
2018-10-01T01:12:54.176Z,940.75
2018-10-01T01:13:54.083Z,940.78
2018-10-01T01:14:54.001Z,940.75
2018-10-01T01:15:53.886Z,940.74
2018-10-01T01:16:53.788Z,940.74
2018-10-01T01:17:53.692Z,940.74
2018-10-01T01:18:53.609Z,940.71
2018-10-01T01:19:53.515Z,940.74
2018-10-01T01:20:53.399Z,940.68
2018-10-01T01:21:53.302Z,940.66
2018-10-01T01:22:53.211Z,940.64
2018-10-01T01:23:53.110Z,940.66
2018-10-01T01:24:53.032Z,940.67
2018-10-01T01:25:52.917Z,940.67
2018-10-01T01:26:52.859Z,940.60
2018-10-01T01:27:52.721Z,940.67
2018-10-01T01:28:52.626Z,940.63
2018-10-01T01:29:52.545Z,940.63
2018-10-01T01:30:52.436Z,940.62
2018-10-01T01:31:52.338Z,940.64
2018-10-01T01:32:52.235Z,940.64
2018-10-01T01:33:52.143Z,940.62
2018-10-01T01:34:52.464Z,940.61
2018-10-01T01:35:51.953Z,940.58
2018-10-01T01:36:51.847Z,940.54
2018-10-01T01:37:51.749Z,940.54
2018-10-01T01:38:51.653Z,940.55
2018-10-01T01:39:51.573Z,940.57
2018-10-01T01:40:51.463Z,940.55
2018-10-01T01:41:51.466Z,940.57
2018-10-01T01:42:51.265Z,940.51
2018-10-01T01:43:51.168Z,940.53
2018-10-01T01:44:51.090Z,940.52
2018-10-01T01:45:50.976Z,940.52
2018-10-01T01:46:50.876Z,940.48
2018-10-01T01:47:50.779Z,940.43
2018-10-01T01:48:50.683Z,940.40
2018-10-01T01:49:50.603Z,940.38
2018-10-01T01:50:50.491Z,940.40
2018-10-01T01:51:50.388Z,940.35
2018-10-01T01:52:50.296Z,940.37
2018-10-01T01:53:50.199Z,940.33
2018-10-01T01:54:50.114Z,940.34
2018-10-01T01:55:50.000Z,940.30
2018-10-01T01:56:49.906Z,940.27
2018-10-01T01:57:49.804Z,940.28
2018-10-01T01:58:49.714Z,940.25
2018-10-01T01:59:49.628Z,940.29
2018-10-01T02:00:49.517Z,940.27
2018-10-01T02:01:49.420Z,940.27
2018-10-01T02:02:49.320Z,940.19
2018-10-01T02:03:49.248Z,940.23
2018-10-01T02:04:49.142Z,940.19
2018-10-01T02:05:49.031Z,940.15
2018-10-01T02:06:48.928Z,940.15
2018-10-01T02:07:48.846Z,940.13
2018-10-01T02:08:48.733Z,940.07
2018-10-01T02:09:48.653Z,940.09
2018-10-01T02:10:48.539Z,940.10
2018-10-01T02:11:48.442Z,940.10
2018-10-01T02:12:48.344Z,940.13
2018-10-01T02:13:48.244Z,940.09
2018-10-01T02:14:48.165Z,940.08
2018-10-01T02:15:48.047Z,940.11
2018-10-01T02:16:47.951Z,940.10
2018-10-01T02:17:47.856Z,940.07
2018-10-01T02:18:47.760Z,940.07
2018-10-01T02:19:47.673Z,940.04
2018-10-01T02:20:47.561Z,940.00
2018-10-01T02:21:47.465Z,940.00
2018-10-01T02:22:47.366Z,939.95
2018-10-01T02:23:47.279Z,939.98
2018-10-01T02:24:47.171Z,939.91
2018-10-01T02:25:47.089Z,939.94
2018-10-01T02:26:46.970Z,939.90
2018-10-01T02:27:46.876Z,939.89
2018-10-01T02:28:46.779Z,939.89
2018-10-01T02:29:46.681Z,939.86
2018-10-01T02:30:46.601Z,939.85
2018-10-01T02:31:46.499Z,939.88
2018-10-01T02:32:46.387Z,939.83
2018-10-01T02:33:46.292Z,939.80
2018-10-01T02:34:46.192Z,939.75
2018-10-01T02:35:46.111Z,939.76
2018-10-01T02:36:45.996Z,939.79
2018-10-01T02:37:45.896Z,939.79
2018-10-01T02:38:45.798Z,939.81
2018-10-01T02:39:45.707Z,939.87
2018-10-01T02:40:45.624Z,939.89
2018-10-01T02:41:45.507Z,939.89
2018-10-01T02:42:45.411Z,939.93
2018-10-01T02:43:45.310Z,939.97
2018-10-01T02:44:45.216Z,939.96
2018-10-01T02:45:45.133Z,939.95
2018-10-01T02:46:45.016Z,939.94
2018-10-01T02:47:45.023Z,939.93
2018-10-01T02:48:44.820Z,939.94
2018-10-01T02:49:44.725Z,939.88
2018-10-01T02:50:44.642Z,939.88
2018-10-01T02:51:44.525Z,939.89
2018-10-01T02:52:44.431Z,939.90
2018-10-01T02:53:44.339Z,939.87
2018-10-01T02:54:44.231Z,939.87
2018-10-01T02:55:44.148Z,939.82
2018-10-01T02:56:44.036Z,939.78
2018-10-01T02:57:43.936Z,939.83
2018-10-01T02:58:43.841Z,939.81
2018-10-01T02:59:43.739Z,939.82
2018-10-01T03:00:43.661Z,939.88
2018-10-01T03:01:43.551Z,939.84
2018-10-01T03:02:43.448Z,939.83
2018-10-01T03:03:43.346Z,939.82
2018-10-01T03:04:43.252Z,939.83
2018-10-01T03:05:43.169Z,939.82
2018-10-01T03:06:43.061Z,939.86
2018-10-01T03:07:42.957Z,939.87
2018-10-01T03:08:42.858Z,939.85
2018-10-01T03:09:42.758Z,939.87
2018-10-01T03:10:42.680Z,939.92
2018-10-01T03:11:42.563Z,939.93
2018-10-01T03:12:42.468Z,939.91
2018-10-01T03:13:42.366Z,939.89
2018-10-01T03:14:42.271Z,939.92
2018-10-01T03:15:42.185Z,939.90
2018-10-01T03:16:42.079Z,939.91
2018-10-01T03:17:41.971Z,939.88
2018-10-01T03:18:41.876Z,939.86
2018-10-01T03:19:41.783Z,939.86
2018-10-01T03:20:41.694Z,939.84
2018-10-01T03:21:41.576Z,939.81
2018-10-01T03:22:41.484Z,939.81
2018-10-01T03:23:41.379Z,939.80
2018-10-01T03:24:41.288Z,939.78
2018-10-01T03:25:41.310Z,939.77
2018-10-01T03:26:41.089Z,939.81
2018-10-01T03:27:40.986Z,939.78
2018-10-01T03:28:40.927Z,939.79
2018-10-01T03:29:40.792Z,939.76
2018-10-01T03:30:40.709Z,939.78
2018-10-01T03:31:40.593Z,939.78
2018-10-01T03:32:40.495Z,939.77
2018-10-01T03:33:40.398Z,939.79
2018-10-01T03:34:40.301Z,939.82
2018-10-01T03:35:40.217Z,939.77
2018-10-01T03:36:40.104Z,939.80
2018-10-01T03:37:40.008Z,939.79
2018-10-01T03:38:39.908Z,939.76
2018-10-01T03:39:39.911Z,939.73
2018-10-01T03:40:39.726Z,939.73
2018-10-01T03:41:39.621Z,939.73
2018-10-01T03:42:39.510Z,939.69
2018-10-01T03:43:39.414Z,939.71
2018-10-01T03:44:39.314Z,939.70
2018-10-01T03:45:39.236Z,939.68
2018-10-01T03:46:39.221Z,939.64
2018-10-01T03:47:39.022Z,939.66
2018-10-01T03:48:38.920Z,939.61
2018-10-01T03:49:38.824Z,939.62
2018-10-01T03:50:38.739Z,939.63
2018-10-01T03:51:38.625Z,939.59
2018-10-01T03:52:38.528Z,939.58
2018-10-01T03:53:38.527Z,939.70
2018-10-01T03:54:38.327Z,939.77
2018-10-01T03:55:38.246Z,939.80
2018-10-01T03:56:38.135Z,939.84
2018-10-01T03:57:38.033Z,939.82
2018-10-01T03:58:37.933Z,939.84
2018-10-01T03:59:37.834Z,939.86
2018-10-01T04:00:37.857Z,939.89
2018-10-01T04:01:37.637Z,939.88
2018-10-01T04:02:37.543Z,939.90
2018-10-01T04:03:37.439Z,939.96
2018-10-01T04:04:37.344Z,939.95
2018-10-01T04:05:37.258Z,939.95
2018-10-01T04:06:37.152Z,939.90
2018-10-01T04:07:37.146Z,939.91
2018-10-01T04:08:36.964Z,939.90
2018-10-01T04:09:36.851Z,939.92
2018-10-01T04:10:36.752Z,939.88
2018-10-01T04:11:36.667Z,939.87
2018-10-01T04:12:36.550Z,939.84
2018-10-01T04:13:36.472Z,939.85
2018-10-01T04:14:36.480Z,939.86
2018-10-01T04:15:36.263Z,939.88
2018-10-01T04:16:36.176Z,939.87
2018-10-01T04:17:36.060Z,939.85
2018-10-01T04:18:35.961Z,939.86
2018-10-01T04:19:35.858Z,939.79
2018-10-01T04:20:35.764Z,939.79
2018-10-01T04:21:35.784Z,939.77
2018-10-01T04:22:35.580Z,939.77
2018-10-01T04:23:35.467Z,939.79
2018-10-01T04:24:35.368Z,939.79
2018-10-01T04:25:35.272Z,939.80
2018-10-01T04:26:35.190Z,939.78
2018-10-01T04:27:35.069Z,939.80
2018-10-01T04:28:35.074Z,939.75
2018-10-01T04:29:34.878Z,939.74
2018-10-01T04:30:34.777Z,939.73
2018-10-01T04:31:34.696Z,939.70
2018-10-01T04:32:34.599Z,939.71
2018-10-01T04:33:34.480Z,939.69
2018-10-01T04:34:34.380Z,939.72
2018-10-01T04:35:34.383Z,939.71
2018-10-01T04:36:34.202Z,939.71
2018-10-01T04:37:34.086Z,939.68
2018-10-01T04:38:33.994Z,939.66
2018-10-01T04:39:33.887Z,939.72
2018-10-01T04:40:33.850Z,939.70
2018-10-01T04:41:33.709Z,939.72
2018-10-01T04:42:33.717Z,939.75
2018-10-01T04:43:33.493Z,939.76
2018-10-01T04:44:33.398Z,939.73
2018-10-01T04:45:33.298Z,939.73
2018-10-01T04:46:33.218Z,939.69
2018-10-01T04:47:33.103Z,939.68
2018-10-01T04:48:33.001Z,939.72
2018-10-01T04:49:32.906Z,939.77
2018-10-01T04:50:32.808Z,939.72
2018-10-01T04:51:32.726Z,939.73
2018-10-01T04:52:32.610Z,939.79
2018-10-01T04:53:32.510Z,939.84
2018-10-01T04:54:32.416Z,939.83
2018-10-01T04:55:32.311Z,939.85
2018-10-01T04:56:32.235Z,939.87
2018-10-01T04:57:32.117Z,939.88
2018-10-01T04:58:32.242Z,939.87
2018-10-01T04:59:31.922Z,939.84
2018-10-01T05:00:31.827Z,939.83
2018-10-01T05:01:31.744Z,939.87
2018-10-01T05:02:31.632Z,939.87
2018-10-01T05:03:31.532Z,939.88
2018-10-01T05:04:31.429Z,939.91
2018-10-01T05:05:31.332Z,939.93
2018-10-01T05:06:31.252Z,939.92
2018-10-01T05:07:31.135Z,939.90
2018-10-01T05:08:31.038Z,939.90
2018-10-01T05:09:30.938Z,939.91
2018-10-01T05:10:30.844Z,939.95
2018-10-01T05:11:30.758Z,940.01
2018-10-01T05:12:30.644Z,940.01
2018-10-01T05:13:30.548Z,940.05
2018-10-01T05:14:30.447Z,940.09
2018-10-01T05:15:30.354Z,940.11
2018-10-01T05:16:30.270Z,940.09
2018-10-01T05:17:30.157Z,940.09
2018-10-01T05:18:30.056Z,940.11
2018-10-01T05:19:29.961Z,940.15
2018-10-01T05:20:29.863Z,940.11
2018-10-01T05:21:29.780Z,940.12
2018-10-01T05:22:29.665Z,940.15
2018-10-01T05:23:29.567Z,940.11
2018-10-01T05:24:29.470Z,940.15
2018-10-01T05:25:29.377Z,940.22
2018-10-01T05:26:29.290Z,940.25
2018-10-01T05:27:29.173Z,940.23
2018-10-01T05:28:29.074Z,940.25
2018-10-01T05:29:28.981Z,940.24
2018-10-01T05:30:28.899Z,940.22
2018-10-01T05:31:28.796Z,940.25
2018-10-01T05:32:28.686Z,940.27
2018-10-01T05:33:28.593Z,940.24
2018-10-01T05:34:28.493Z,940.27
2018-10-01T05:35:28.394Z,940.27
2018-10-01T05:36:28.309Z,940.30
2018-10-01T05:37:28.195Z,940.34
2018-10-01T05:38:28.096Z,940.32
2018-10-01T05:39:28.002Z,940.39
2018-10-01T05:40:27.903Z,940.40
2018-10-01T05:41:27.824Z,940.42
2018-10-01T05:42:27.720Z,940.44
2018-10-01T05:43:27.612Z,940.47
2018-10-01T05:44:27.509Z,940.47
2018-10-01T05:45:27.417Z,940.51
2018-10-01T05:46:27.318Z,940.49
2018-10-01T05:47:27.231Z,940.53
2018-10-01T05:48:27.122Z,940.51
2018-10-01T05:49:27.022Z,940.49
2018-10-01T05:50:26.925Z,940.51
2018-10-01T05:51:26.949Z,940.50
2018-10-01T05:52:26.775Z,940.50
2018-10-01T05:53:26.632Z,940.53
2018-10-01T05:54:26.535Z,940.56
2018-10-01T05:55:26.435Z,940.51
2018-10-01T05:56:26.341Z,940.45
2018-10-01T05:57:26.256Z,940.47
2018-10-01T05:58:26.143Z,940.45
2018-10-01T05:59:26.047Z,940.47
2018-10-01T06:00:25.947Z,940.47
2018-10-01T06:01:25.852Z,940.55
2018-10-01T06:02:25.769Z,940.60
2018-10-01T06:03:25.652Z,940.65
2018-10-01T06:04:25.560Z,940.69
2018-10-01T06:05:25.562Z,940.72
2018-10-01T06:06:25.365Z,940.73
2018-10-01T06:07:25.282Z,940.70
2018-10-01T06:08:25.168Z,940.68
2018-10-01T06:09:25.097Z,940.69
2018-10-01T06:10:24.975Z,940.63
2018-10-01T06:11:24.875Z,940.64
2018-10-01T06:12:24.900Z,940.69
2018-10-01T06:13:24.680Z,940.70
2018-10-01T06:14:24.589Z,940.72
2018-10-01T06:15:24.484Z,940.74
2018-10-01T06:16:24.389Z,940.79
2018-10-01T06:17:24.307Z,940.82
2018-10-01T06:18:24.194Z,940.81
2018-10-01T06:19:24.214Z,940.83
2018-10-01T06:20:23.999Z,940.80
2018-10-01T06:21:23.906Z,940.82
2018-10-01T06:22:23.826Z,940.87
2018-10-01T06:23:23.710Z,940.87
2018-10-01T06:24:23.614Z,940.88
2018-10-01T06:25:23.519Z,940.89
2018-10-01T06:26:23.531Z,940.88
2018-10-01T06:27:23.341Z,940.88
2018-10-01T06:28:23.227Z,940.90
2018-10-01T06:29:23.127Z,940.95
2018-10-01T06:30:23.035Z,940.97
2018-10-01T06:31:22.937Z,940.93
2018-10-01T06:32:22.853Z,940.98
2018-10-01T06:33:22.843Z,940.99
2018-10-01T06:34:22.646Z,941.01
2018-10-01T06:35:22.549Z,940.99
2018-10-01T06:36:22.500Z,941.05
2018-10-01T06:37:22.372Z,941.07
2018-10-01T06:38:22.262Z,941.11
2018-10-01T06:39:22.185Z,941.20
2018-10-01T06:40:22.169Z,941.22
2018-10-01T06:41:21.970Z,941.23
2018-10-01T06:42:21.891Z,941.26
2018-10-01T06:43:21.776Z,941.25
2018-10-01T06:44:21.681Z,941.26
2018-10-01T06:45:21.583Z,941.27
2018-10-01T06:46:21.489Z,941.23
2018-10-01T06:47:21.406Z,941.22
2018-10-01T06:48:21.297Z,941.24
2018-10-01T06:49:21.201Z,941.27
2018-10-01T06:50:21.104Z,941.21
2018-10-01T06:51:21.104Z,941.21
2018-10-01T06:52:20.923Z,941.27
2018-10-01T06:53:20.808Z,941.33
2018-10-01T06:54:20.714Z,941.41
2018-10-01T06:55:20.619Z,941.38
2018-10-01T06:56:20.522Z,941.41
2018-10-01T06:57:20.441Z,941.46
2018-10-01T06:58:20.336Z,941.47
2018-10-01T06:59:20.233Z,941.52
2018-10-01T07:00:20.137Z,941.56
2018-10-01T07:01:20.103Z,941.60
2018-10-01T07:02:19.958Z,941.60
2018-10-01T07:03:19.844Z,941.56
2018-10-01T07:04:19.750Z,941.58
2018-10-01T07:05:19.667Z,941.59
2018-10-01T07:06:19.561Z,941.57
2018-10-01T07:07:19.473Z,941.58
2018-10-01T07:08:19.363Z,941.55
2018-10-01T07:09:19.266Z,941.57
2018-10-01T07:10:19.170Z,941.54
2018-10-01T07:11:19.143Z,941.59
2018-10-01T07:12:18.995Z,941.59
2018-10-01T07:13:18.882Z,941.61
2018-10-01T07:14:18.783Z,941.64
2018-10-01T07:15:18.686Z,941.63
2018-10-01T07:16:18.608Z,941.67
2018-10-01T07:17:18.627Z,941.66
2018-10-01T07:18:18.398Z,941.68
2018-10-01T07:19:18.321Z,941.71
2018-10-01T07:20:18.207Z,941.65
2018-10-01T07:21:18.107Z,941.63
2018-10-01T07:22:18.032Z,941.60
2018-10-01T07:23:18.441Z,941.57
2018-10-01T07:24:17.819Z,941.57
2018-10-01T07:25:17.727Z,941.55
2018-10-01T07:26:17.631Z,941.56
2018-10-01T07:27:17.550Z,941.61
2018-10-01T07:28:17.437Z,941.66
2018-10-01T07:29:17.344Z,941.67
2018-10-01T07:30:17.346Z,941.75
2018-10-01T07:31:17.158Z,941.81
2018-10-01T07:32:17.065Z,941.75
2018-10-01T07:33:16.964Z,941.80
2018-10-01T07:34:16.862Z,941.77
2018-10-01T07:35:16.767Z,941.82
2018-10-01T07:36:16.670Z,941.88
2018-10-01T07:37:16.577Z,941.91
2018-10-01T07:38:16.497Z,941.95
2018-10-01T07:39:16.380Z,941.99
2018-10-01T07:40:16.292Z,941.98
2018-10-01T07:41:16.190Z,942.01
2018-10-01T07:42:16.112Z,942.03
2018-10-01T07:43:15.998Z,941.96
2018-10-01T07:44:16.007Z,941.91
2018-10-01T07:45:15.923Z,941.93
2018-10-01T07:46:15.730Z,942.11
2018-10-01T07:47:15.618Z,942.29
2018-10-01T07:48:15.547Z,942.35
2018-10-01T07:49:15.427Z,942.32
2018-10-01T07:50:15.332Z,942.31
2018-10-01T07:51:15.239Z,942.22
2018-10-01T07:52:15.141Z,942.23
2018-10-01T07:53:15.074Z,942.19
2018-10-01T07:54:14.953Z,942.06
2018-10-01T07:55:14.858Z,942.02
2018-10-01T07:56:14.763Z,942.01
2018-10-01T07:57:14.728Z,942.00
2018-10-01T07:58:14.591Z,941.99
2018-10-01T07:59:14.477Z,942.00
2018-10-01T08:00:14.412Z,942.06
2018-10-01T08:01:14.292Z,942.03
2018-10-01T08:02:14.271Z,942.06
2018-10-01T08:03:14.117Z,942.07
2018-10-01T08:04:14.007Z,942.09
2018-10-01T08:05:13.913Z,942.13
2018-10-01T08:06:13.820Z,942.11
2018-10-01T08:07:13.726Z,942.07
2018-10-01T08:08:13.709Z,942.10
2018-10-01T08:09:13.541Z,942.12
2018-10-01T08:10:13.446Z,942.14
2018-10-01T08:11:13.351Z,942.10
2018-10-01T08:12:13.256Z,942.17
2018-10-01T08:13:13.185Z,942.23
2018-10-01T08:14:13.140Z,942.24
2018-10-01T08:15:12.971Z,942.20
2018-10-01T08:16:12.879Z,942.19
2018-10-01T08:17:12.786Z,942.19
2018-10-01T08:18:12.707Z,942.19
2018-10-01T08:19:12.595Z,942.12
2018-10-01T08:20:12.555Z,942.10
2018-10-01T08:21:12.411Z,942.12
2018-10-01T08:22:12.317Z,942.13
2018-10-01T08:23:12.237Z,942.13
2018-10-01T08:24:12.129Z,942.18
2018-10-01T08:25:12.039Z,942.17
2018-10-01T08:26:12.014Z,942.22
2018-10-01T08:27:11.846Z,942.30
2018-10-01T08:28:11.770Z,942.21
2018-10-01T08:29:11.720Z,942.24
2018-10-01T08:30:11.566Z,942.24
2018-10-01T08:31:11.474Z,942.32
2018-10-01T08:32:11.427Z,942.29
2018-10-01T08:33:11.301Z,942.25
2018-10-01T08:34:11.198Z,942.29
2018-10-01T08:35:11.176Z,942.27
2018-10-01T08:36:11.297Z,942.29
2018-10-01T08:37:10.917Z,942.28
2018-10-01T08:38:10.946Z,942.35
2018-10-01T08:39:10.722Z,942.31
2018-10-01T08:40:10.628Z,942.29
2018-10-01T08:41:10.590Z,942.27
2018-10-01T08:42:10.442Z,942.26
2018-10-01T08:43:10.364Z,942.29
2018-10-01T08:44:10.284Z,942.33
2018-10-01T08:45:10.167Z,942.33
2018-10-01T08:46:10.068Z,942.31
2018-10-01T08:47:10.055Z,942.34
2018-10-01T08:48:09.899Z,942.32
2018-10-01T08:49:09.791Z,942.32
2018-10-01T08:50:09.727Z,942.34
2018-10-01T08:51:09.605Z,942.34
2018-10-01T08:52:09.580Z,942.34
2018-10-01T08:53:09.469Z,942.35
2018-10-01T08:54:09.326Z,942.34
2018-10-01T08:55:09.229Z,942.38
2018-10-01T08:56:09.176Z,942.37
2018-10-01T08:57:09.053Z,942.36
2018-10-01T08:58:08.969Z,942.38
2018-10-01T08:59:08.915Z,942.40
2018-10-01T09:00:08.760Z,942.44
2018-10-01T09:01:08.733Z,942.46
2018-10-01T09:02:08.590Z,942.44
2018-10-01T09:03:08.606Z,942.40
2018-10-01T09:04:08.391Z,942.44
2018-10-01T09:05:08.360Z,942.37
2018-10-01T09:06:08.206Z,942.44
2018-10-01T09:07:08.112Z,942.39
2018-10-01T09:08:08.088Z,942.40
2018-10-01T09:09:07.951Z,942.34
2018-10-01T09:10:07.957Z,942.40
2018-10-01T09:11:07.773Z,942.39
2018-10-01T09:12:07.648Z,942.40
2018-10-01T09:13:07.576Z,942.39
2018-10-01T09:14:07.529Z,942.39
2018-10-01T09:15:07.370Z,942.40
2018-10-01T09:16:07.274Z,942.39
2018-10-01T09:17:07.195Z,942.41
2018-10-01T09:18:07.105Z,942.43
2018-10-01T09:19:07.015Z,942.42
2018-10-01T09:20:06.928Z,942.41
2018-10-01T09:21:06.851Z,942.43
2018-10-01T09:22:06.722Z,942.45
2018-10-01T09:23:06.649Z,942.47
2018-10-01T09:24:06.548Z,942.49
2018-10-01T09:25:06.442Z,942.50
2018-10-01T09:26:06.400Z,942.50
2018-10-01T09:27:06.254Z,942.52
2018-10-01T09:28:06.169Z,942.48
2018-10-01T09:29:06.158Z,942.49
2018-10-01T09:30:05.978Z,942.53
2018-10-01T09:31:05.897Z,942.50
2018-10-01T09:32:05.847Z,942.49
2018-10-01T09:33:05.706Z,942.48
2018-10-01T09:34:05.621Z,942.52
2018-10-01T09:35:05.523Z,942.54
2018-10-01T09:36:05.425Z,942.52
2018-10-01T09:37:05.432Z,942.56
2018-10-01T09:38:05.292Z,942.63
2018-10-01T09:39:05.160Z,942.67
2018-10-01T09:40:05.105Z,942.73
2018-10-01T09:41:04.960Z,942.76
2018-10-01T09:42:04.930Z,942.75
2018-10-01T09:43:04.776Z,942.73
2018-10-01T09:44:04.882Z,942.74
2018-10-01T09:45:04.607Z,942.71
2018-10-01T09:46:04.501Z,942.69
2018-10-01T09:47:04.401Z,942.68
2018-10-01T09:48:04.364Z,942.71
2018-10-01T09:49:04.237Z,942.66
2018-10-01T09:50:04.154Z,942.67
2018-10-01T09:51:04.137Z,942.72
2018-10-01T09:52:03.990Z,942.63
2018-10-01T09:53:03.851Z,942.65
2018-10-01T09:54:03.773Z,942.66
2018-10-01T09:55:03.666Z,942.61
2018-10-01T09:56:03.618Z,942.63
2018-10-01T09:57:03.482Z,942.58
2018-10-01T09:58:03.495Z,942.57
2018-10-01T09:59:03.311Z,942.57
2018-10-01T10:00:03.205Z,942.57
2018-10-01T10:01:03.113Z,942.58
2018-10-01T10:02:03.071Z,942.58
2018-10-01T10:03:02.926Z,942.64
2018-10-01T10:04:02.879Z,942.63
2018-10-01T10:05:02.750Z,942.65
2018-10-01T10:06:02.653Z,942.66
2018-10-01T10:07:02.559Z,942.62
2018-10-01T10:08:02.537Z,942.60
2018-10-01T10:09:02.394Z,942.68
2018-10-01T10:10:02.331Z,942.66
2018-10-01T10:11:02.188Z,942.61
2018-10-01T10:12:02.200Z,942.72
2018-10-01T10:13:02.009Z,942.67
2018-10-01T10:14:01.995Z,942.75
2018-10-01T10:15:01.824Z,942.71
2018-10-01T10:16:01.760Z,942.73
2018-10-01T10:17:01.702Z,942.75
2018-10-01T10:18:01.611Z,942.84
2018-10-01T10:19:01.468Z,942.82
2018-10-01T10:20:01.414Z,942.84
2018-10-01T10:21:01.266Z,942.85
2018-10-01T10:22:01.188Z,942.84
2018-10-01T10:23:01.087Z,942.81
2018-10-01T10:24:01.010Z,942.82
2018-10-01T10:25:00.902Z,942.86
2018-10-01T10:26:00.873Z,942.82
2018-10-01T10:27:00.728Z,942.84
2018-10-01T10:28:00.653Z,942.81
2018-10-01T10:29:00.548Z,942.83
2018-10-01T10:30:00.439Z,942.78
2018-10-01T10:31:00.349Z,942.80
2018-10-01T10:32:00.260Z,942.77
2018-10-01T10:33:00.159Z,942.82
2018-10-01T10:34:00.099Z,942.81
2018-10-01T10:34:59.972Z,942.80
2018-10-01T10:35:59.883Z,942.76
2018-10-01T10:36:59.794Z,942.82
2018-10-01T10:37:59.708Z,942.88
2018-10-01T10:38:59.620Z,942.84
2018-10-01T10:39:59.513Z,942.95
2018-10-01T10:40:59.419Z,942.98
2018-10-01T10:41:59.327Z,943.07
2018-10-01T10:42:59.236Z,943.03
2018-10-01T10:43:59.224Z,943.09
2018-10-01T10:44:59.051Z,943.14
2018-10-01T10:45:58.959Z,943.01
2018-10-01T10:46:58.863Z,943.07
2018-10-01T10:47:58.831Z,943.12
2018-10-01T10:48:58.702Z,943.10
2018-10-01T10:49:58.641Z,943.08
2018-10-01T10:50:58.498Z,943.03
2018-10-01T10:51:58.402Z,943.13
2018-10-01T10:52:58.309Z,943.09
2018-10-01T10:53:58.239Z,943.07
2018-10-01T10:54:58.121Z,943.07
2018-10-01T10:55:58.050Z,943.06
2018-10-01T10:56:57.942Z,943.03
2018-10-01T10:57:57.851Z,943.01
2018-10-01T10:58:57.770Z,943.02
2018-10-01T10:59:57.662Z,943.04
2018-10-01T11:00:57.569Z,942.99
2018-10-01T11:01:57.488Z,943.02
2018-10-01T11:02:57.382Z,943.02
2018-10-01T11:03:57.308Z,943.02
2018-10-01T11:04:57.196Z,943.09
2018-10-01T11:05:57.103Z,943.06
2018-10-01T11:06:57.019Z,943.09
2018-10-01T11:07:56.923Z,943.15
2018-10-01T11:08:56.844Z,943.11
2018-10-01T11:09:56.733Z,943.18
2018-10-01T11:10:56.639Z,943.16
2018-10-01T11:11:56.548Z,943.12
2018-10-01T11:12:56.461Z,943.16
2018-10-01T11:13:56.398Z,943.19
2018-10-01T11:14:56.498Z,943.22
2018-10-01T11:15:56.178Z,943.27
2018-10-01T11:16:56.085Z,943.25
2018-10-01T11:17:56.058Z,943.20
2018-10-01T11:18:56.012Z,943.15
2018-10-01T11:19:55.846Z,943.11
2018-10-01T11:20:55.740Z,943.15
2018-10-01T11:21:55.656Z,943.15
2018-10-01T11:22:55.530Z,943.20
2018-10-01T11:23:55.440Z,943.20
2018-10-01T11:24:55.361Z,943.16
2018-10-01T11:25:55.249Z,943.18
2018-10-01T11:26:55.159Z,943.23
2018-10-01T11:27:55.220Z,943.13
2018-10-01T11:28:55.076Z,943.06
2018-10-01T11:29:54.897Z,942.99
2018-10-01T11:30:54.793Z,943.00
2018-10-01T11:31:54.818Z,942.95
2018-10-01T11:32:54.643Z,942.97
2018-10-01T11:33:54.515Z,942.91
2018-10-01T11:34:54.569Z,942.93
2018-10-01T11:35:54.328Z,942.94
2018-10-01T11:36:54.233Z,942.93
2018-10-01T11:37:54.201Z,942.96
2018-10-01T11:38:54.057Z,942.93
2018-10-01T11:39:53.977Z,942.99
2018-10-01T11:40:53.867Z,943.05
2018-10-01T11:41:53.880Z,943.03
2018-10-01T11:42:53.684Z,943.06
2018-10-01T11:43:53.587Z,943.15
2018-10-01T11:44:53.514Z,943.20
2018-10-01T11:45:53.404Z,943.23
2018-10-01T11:46:53.312Z,943.24
2018-10-01T11:47:53.220Z,943.23
2018-10-01T11:48:53.131Z,943.23
2018-10-01T11:49:53.053Z,943.15
2018-10-01T11:50:52.943Z,943.09
2018-10-01T11:51:52.850Z,943.07
2018-10-01T11:52:52.756Z,943.06
2018-10-01T11:53:52.665Z,943.09
2018-10-01T11:54:52.591Z,943.08
2018-10-01T11:55:52.590Z,943.08
2018-10-01T11:56:52.395Z,943.06
2018-10-01T11:57:52.315Z,943.06
2018-10-01T11:58:52.203Z,943.05
2018-10-01T11:59:52.129Z,943.04
2018-10-01T12:00:52.023Z,943.04
2018-10-01T12:01:51.929Z,943.06
2018-10-01T12:02:51.940Z,943.07
2018-10-01T12:03:51.766Z,943.03
2018-10-01T12:04:51.668Z,942.97
2018-10-01T12:05:51.558Z,942.97
2018-10-01T12:06:51.469Z,942.96
2018-10-01T12:07:51.372Z,942.91
2018-10-01T12:08:51.282Z,942.85
2018-10-01T12:09:51.379Z,942.86
2018-10-01T12:10:51.102Z,942.83
2018-10-01T12:11:51.009Z,942.81
2018-10-01T12:12:50.916Z,942.87
2018-10-01T12:13:50.825Z,942.84
2018-10-01T12:14:50.745Z,942.82
2018-10-01T12:15:50.740Z,942.86
2018-10-01T12:16:50.649Z,942.92
2018-10-01T12:17:50.455Z,942.87
2018-10-01T12:18:50.364Z,942.89
2018-10-01T12:19:50.286Z,942.95
2018-10-01T12:20:50.177Z,942.93
2018-10-01T12:21:50.130Z,942.98
2018-10-01T12:22:49.992Z,943.05
2018-10-01T12:23:50.009Z,943.02
2018-10-01T12:24:49.824Z,943.02
2018-10-01T12:25:49.715Z,943.04
2018-10-01T12:26:49.613Z,943.03